Time;durP1;ratioP1;P1;durP2;ratioP2;P2;SDS_P1;SDS_P2;PMS_P1;PMS_P2;Temp;Humidity;BMP_temperature;BMP_pressure;BME280_temperature;BME280_humidity;BME280_pressure;Samples;Min_cycle;Max_cycle;Signal;HPM_P1;HPM_P2
2023/03/05 00:01:11;;;;;;;6.57;1.20;;;5.40;99.90;;;;;;4903660;29;20307;-87
2023/03/05 00:03:36;;;;;;;5.25;1.73;;;5.50;99.90;;;;;;4915747;29;20428;-76
2023/03/05 00:06:02;;;;;;;9.10;1.50;;;5.40;99.90;;;;;;4920632;29;20057;-86
2023/03/05 00:08:30;;;;;;;6.18;1.52;;;5.40;99.90;;;;;;4921708;29;20044;-81
2023/03/05 00:10:56;;;;;;;2.83;1.40;;;5.40;99.90;;;;;;4913634;29;20120;-82
2023/03/05 00:13:22;;;;;;;5.03;1.50;;;5.40;99.90;;;;;;4895176;29;20115;-78
2023/03/05 00:15:47;;;;;;;4.18;1.30;;;5.40;99.90;;;;;;4901993;29;20028;-78
2023/03/05 00:18:13;;;;;;;8.50;1.58;;;5.40;99.90;;;;;;4916666;29;20497;-79
2023/03/05 00:20:39;;;;;;;12.48;1.80;;;5.40;99.90;;;;;;4902587;29;20039;-79
2023/03/05 00:23:04;;;;;;;7.88;1.50;;;5.30;99.90;;;;;;4918311;29;20064;-78
2023/03/05 00:25:30;;;;;;;2.42;1.60;;;5.30;99.90;;;;;;4919241;29;20028;-79
2023/03/05 00:27:56;;;;;;;6.78;1.55;;;5.40;99.90;;;;;;4919647;29;20115;-79
2023/03/05 00:30:21;;;;;;;15.70;1.85;;;5.40;99.90;;;;;;4901782;29;20036;-79
2023/03/05 00:32:47;;;;;;;5.20;1.88;;;5.40;99.90;;;;;;4917742;29;20024;-79
2023/03/05 00:35:13;;;;;;;10.80;1.70;;;5.40;99.90;;;;;;4898422;29;20089;-78
2023/03/05 00:37:38;;;;;;;8.75;1.77;;;5.40;99.90;;;;;;4902577;29;20024;-79
2023/03/05 00:40:04;;;;;;;3.58;1.60;;;5.50;99.90;;;;;;4897001;29;20122;-79
2023/03/05 00:42:30;;;;;;;8.80;1.80;;;5.50;99.90;;;;;;4903117;29;20032;-78
2023/03/05 00:44:56;;;;;;;5.30;1.55;;;5.60;99.90;;;;;;4920587;29;20058;-79
2023/03/05 00:47:22;;;;;;;2.78;1.50;;;5.60;99.90;;;;;;4919784;29;20063;-78
2023/03/05 00:49:48;;;;;;;8.95;1.80;;;5.70;99.90;;;;;;4919737;29;20036;-79
2023/03/05 00:52:13;;;;;;;5.28;1.30;;;5.70;99.90;;;;;;4902649;29;20024;-79
2023/03/05 00:54:39;;;;;;;8.50;1.85;;;5.70;99.90;;;;;;4903836;29;20020;-79
2023/03/05 00:57:05;;;;;;;12.80;1.92;;;5.70;99.90;;;;;;4924049;29;20035;-80
2023/03/05 00:59:30;;;;;;;6.55;1.73;;;5.70;99.90;;;;;;4922358;29;20056;-80
2023/03/05 01:01:56;;;;;;;8.68;1.65;;;5.70;99.90;;;;;;4903057;29;20504;-79
2023/03/05 01:04:22;;;;;;;9.52;1.70;;;5.70;99.90;;;;;;4908100;29;20032;-78
2023/03/05 01:06:47;;;;;;;11.77;1.80;;;5.70;99.90;;;;;;4912755;29;20020;-79
2023/03/05 01:09:13;;;;;;;8.77;1.60;;;5.70;99.90;;;;;;4932986;29;20036;-80
2023/03/05 01:11:40;;;;;;;6.20;1.40;;;5.60;99.90;;;;;;4930093;29;20044;-81
2023/03/05 01:14:06;;;;;;;8.82;1.60;;;5.60;99.90;;;;;;4898190;29;20045;-81
2023/03/05 01:16:32;;;;;;;6.43;1.60;;;5.60;99.90;;;;;;4919547;29;20044;-80
2023/03/05 01:18:58;;;;;;;3.83;1.63;;;5.60;99.90;;;;;;4941569;29;20044;-80
2023/03/05 01:21:25;;;;;;;7.32;2.17;;;5.70;99.90;;;;;;4939255;29;20091;-80
2023/03/05 01:23:50;;;;;;;5.15;1.75;;;5.60;99.90;;;;;;4943505;29;20016;-80
2023/03/05 01:26:16;;;;;;;5.65;1.73;;;5.60;99.90;;;;;;4942270;29;20059;-78
2023/03/05 01:28:42;;;;;;;8.65;1.48;;;5.60;99.90;;;;;;4926172;29;20067;-79
2023/03/05 01:31:11;;;;;;;7.82;1.55;;;5.60;99.90;;;;;;4942947;29;20036;-79
2023/03/05 01:33:37;;;;;;;10.07;1.27;;;5.50;99.90;;;;;;4943013;29;20040;-77
2023/03/05 01:36:12;;;;;;;9.23;1.48;;;5.40;99.90;;;;;;4939027;29;20020;-79
2023/03/05 01:38:38;;;;;;;11.77;1.85;;;5.30;99.90;;;;;;4926318;29;20020;-78
2023/03/05 01:41:04;;;;;;;6.60;1.52;;;5.30;99.90;;;;;;4923202;29;20040;-79
2023/03/05 01:43:30;;;;;;;12.70;1.60;;;5.30;99.90;;;;;;4923553;29;20057;-78
2023/03/05 01:46:15;;;;;;;3.40;1.38;;;5.20;99.90;;;;;;4927283;29;20032;-79
2023/03/05 01:48:49;;;;;;;3.83;1.08;;;5.20;99.90;;;;;;4942971;29;20055;-79
2023/03/05 01:51:16;;;;;;;6.25;1.27;;;5.30;99.90;;;;;;4926636;29;20071;-79
2023/03/05 01:53:41;;;;;;;9.80;1.20;;;5.30;99.90;;;;;;4942740;28;20036;-79
2023/03/05 01:56:08;;;;;;;3.70;0.88;;;5.20;99.90;;;;;;4926352;28;20016;-77
2023/03/05 01:58:34;;;;;;;7.38;1.33;;;5.30;99.90;;;;;;4926228;28;20060;-80
2023/03/05 02:01:00;;;;;;;3.70;1.25;;;5.40;99.90;;;;;;4926410;29;20040;-79
2023/03/05 02:03:26;;;;;;;3.90;1.15;;;5.40;99.90;;;;;;4942919;29;20063;-78
2023/03/05 02:05:52;;;;;;;6.30;1.33;;;5.40;99.90;;;;;;4942078;29;20046;-79
2023/03/05 02:08:20;;;;;;;1.75;1.00;;;5.40;99.90;;;;;;4926406;29;20103;-78
2023/03/05 02:10:59;;;;;;;3.95;1.08;;;5.30;99.90;;;;;;4926437;29;20027;-79
2023/03/05 02:13:28;;;;;;;3.47;1.30;;;5.40;99.90;;;;;;4942647;28;20012;-79
2023/03/05 02:15:56;;;;;;;4.45;0.65;;;5.40;99.90;;;;;;4942708;29;20040;-78
2023/03/05 02:18:22;;;;;;;5.82;1.08;;;5.40;99.90;;;;;;4942148;29;20031;-78
2023/03/05 02:21:07;;;;;;;3.78;1.30;;;5.40;99.90;;;;;;4925770;29;20016;-81
2023/03/05 02:23:35;;;;;;;4.85;1.00;;;5.30;99.90;;;;;;4923064;29;20021;-80
2023/03/05 02:26:02;;;;;;;;;;;5.20;99.90;;;;;;4923074;29;20012;-79
2023/03/05 02:28:44;;;;;;;5.00;0.95;;;5.10;99.90;;;;;;4914053;29;19911;-79
2023/03/05 02:31:20;;;;;;;1.77;0.65;;;5.00;99.90;;;;;;4920704;29;20024;-79
2023/03/05 02:33:47;;;;;;;1.42;0.70;;;5.00;99.90;;;;;;4906539;29;20119;-79
2023/03/05 02:36:13;;;;;;;3.80;0.63;;;4.90;99.90;;;;;;4903650;29;20041;-79
2023/03/05 02:38:41;;;;;;;3.43;0.80;;;4.90;99.90;;;;;;4904602;29;20461;-79
2023/03/05 02:41:07;;;;;;;10.93;0.98;;;4.90;99.90;;;;;;4918365;29;20394;-79
2023/03/05 02:43:33;;;;;;;3.63;0.90;;;4.90;99.90;;;;;;4904414;29;20509;-79
2023/03/05 02:45:59;;;;;;;9.15;1.02;;;4.90;99.90;;;;;;4919056;29;20088;-78
2023/03/05 02:48:24;;;;;;;5.05;0.82;;;4.80;99.90;;;;;;4902948;29;20119;-78
2023/03/05 02:50:50;;;;;;;5.18;0.85;;;4.80;99.90;;;;;;4919899;29;20425;-78
2023/03/05 02:53:18;;;;;;;4.60;1.05;;;4.70;99.90;;;;;;4916499;29;20119;-78
2023/03/05 02:55:46;;;;;;;4.53;0.77;;;4.80;99.90;;;;;;4919014;29;20032;-78
2023/03/05 02:58:12;;;;;;;2.67;0.80;;;4.80;99.90;;;;;;4901765;29;20079;-78
2023/03/05 03:00:37;;;;;;;5.97;1.17;;;4.80;99.90;;;;;;4900455;29;20497;-79
2023/03/05 03:03:04;;;;;;;5.93;1.17;;;4.80;99.90;;;;;;4918092;29;20029;-79
2023/03/05 03:05:29;;;;;;;5.60;0.90;;;4.80;99.90;;;;;;4918368;29;20160;-79
2023/03/05 03:07:55;;;;;;;4.22;0.68;;;4.80;99.90;;;;;;4900114;29;20020;-79
2023/03/05 03:10:21;;;;;;;9.70;1.58;;;4.80;99.90;;;;;;4917884;29;20393;-78
2023/03/05 03:12:46;;;;;;;1.65;0.52;;;4.90;99.90;;;;;;4915754;29;20538;-78
2023/03/05 03:15:14;;;;;;;1.98;0.70;;;4.90;99.90;;;;;;4917367;29;20035;-79
2023/03/05 03:17:40;;;;;;;6.10;0.70;;;4.90;99.90;;;;;;4900330;29;20485;-78
2023/03/05 03:20:12;;;;;;;3.55;0.80;;;4.90;99.90;;;;;;4917033;29;20036;-80
2023/03/05 03:22:40;;;;;;;3.22;0.80;;;4.90;99.90;;;;;;4917545;29;20028;-80
2023/03/05 03:25:06;;;;;;;2.33;0.75;;;4.90;99.90;;;;;;4917525;29;20040;-78
2023/03/05 03:27:32;;;;;;;1.85;0.68;;;4.80;99.90;;;;;;4916636;29;20040;-78
2023/03/05 03:30:01;;;;;;;0.93;0.30;;;4.80;99.90;;;;;;4897548;29;20119;-79
2023/03/05 03:32:28;;;;;;;2.33;0.40;;;4.80;99.90;;;;;;4899621;29;20028;-79
2023/03/05 03:34:53;;;;;;;1.27;0.68;;;4.90;99.90;;;;;;4900012;29;20025;-78
2023/03/05 03:37:19;;;;;;;2.85;0.85;;;4.90;99.90;;;;;;4912264;29;20477;-78
2023/03/05 03:39:44;;;;;;;8.52;0.95;;;4.90;99.90;;;;;;4896774;29;20037;-79
2023/03/05 03:42:10;;;;;;;5.15;0.82;;;4.90;99.90;;;;;;4898503;29;20044;-79
2023/03/05 03:44:36;;;;;;;3.53;0.55;;;4.90;99.90;;;;;;4905834;29;20036;-78
2023/03/05 03:47:02;;;;;;;3.75;0.57;;;4.90;99.90;;;;;;4917627;29;20036;-80
2023/03/05 03:49:27;;;;;;;2.85;0.90;;;4.90;99.90;;;;;;4916942;29;20115;-79
2023/03/05 03:51:53;;;;;;;4.13;0.55;;;5.00;99.90;;;;;;4900136;29;20024;-80
2023/03/05 03:54:20;;;;;;;6.85;0.88;;;5.00;99.90;;;;;;4918097;29;20021;-81
2023/03/05 03:56:46;;;;;;;11.18;1.38;;;5.10;99.90;;;;;;4896748;29;20032;-79
2023/03/05 03:59:13;;;;;;;5.35;0.80;;;5.10;99.90;;;;;;4902792;29;20052;-80
2023/03/05 04:01:38;;;;;;;1.75;0.70;;;5.10;99.90;;;;;;4903510;29;20095;-80
2023/03/05 04:04:04;;;;;;;5.95;0.52;;;5.20;99.90;;;;;;4903458;29;20032;-81
2023/03/05 04:06:30;;;;;;;3.58;0.82;;;5.10;99.90;;;;;;4903539;29;20040;-80
2023/03/05 04:08:56;;;;;;;4.32;1.02;;;5.20;99.90;;;;;;4919597;29;20099;-79
2023/03/05 04:11:23;;;;;;;2.75;0.50;;;5.20;99.90;;;;;;4920386;29;20107;-80
2023/03/05 04:13:49;;;;;;;5.70;1.00;;;5.20;99.90;;;;;;4902843;29;20024;-80
2023/03/05 04:16:15;;;;;;;6.95;0.90;;;5.20;99.90;;;;;;4920025;29;20569;-80
2023/03/05 04:18:42;;;;;;;1.02;0.60;;;5.10;99.90;;;;;;4920325;29;20032;-79
2023/03/05 04:21:08;;;;;;;6.60;0.80;;;5.00;99.90;;;;;;4902968;29;20039;-79
2023/03/05 04:23:34;;;;;;;2.00;0.68;;;5.00;99.90;;;;;;4902763;29;20083;-78
2023/03/05 04:26:01;;;;;;;3.10;0.40;;;5.00;99.90;;;;;;4902892;29;20039;-79
2023/03/05 04:28:26;;;;;;;4.07;0.80;;;4.90;99.90;;;;;;4919624;29;20063;-79
2023/03/05 04:30:52;;;;;;;4.10;0.47;;;4.80;99.90;;;;;;4902831;29;20024;-79
2023/03/05 04:33:18;;;;;;;4.68;0.80;;;4.80;99.90;;;;;;4920030;29;20024;-80
2023/03/05 04:35:44;;;;;;;4.32;0.80;;;4.80;99.90;;;;;;4903357;29;20517;-80
2023/03/05 04:38:10;;;;;;;3.72;0.93;;;4.70;99.90;;;;;;4915672;29;20032;-79
2023/03/05 04:40:36;;;;;;;1.05;0.40;;;4.80;99.90;;;;;;4913533;29;20123;-80
2023/03/05 04:43:03;;;;;;;3.40;1.17;;;4.80;99.90;;;;;;4919600;29;20099;-80
2023/03/05 04:45:29;;;;;;;5.53;0.70;;;4.90;99.90;;;;;;4919070;29;20397;-80
2023/03/05 04:47:55;;;;;;;4.88;1.02;;;4.90;99.90;;;;;;4919457;29;20047;-78
2023/03/05 04:50:20;;;;;;;4.40;1.23;;;4.90;99.90;;;;;;4902075;29;20033;-79
2023/03/05 04:52:46;;;;;;;3.83;0.52;;;4.90;99.90;;;;;;4919524;29;20485;-79
2023/03/05 04:55:14;;;;;;;4.97;1.10;;;4.80;99.90;;;;;;4901533;29;20040;-79
2023/03/05 04:57:40;;;;;;;7.40;0.77;;;4.80;99.90;;;;;;4902391;29;20027;-79
2023/03/05 05:00:12;;;;;;;2.22;0.52;;;4.90;99.90;;;;;;4916289;29;20517;-80
2023/03/05 05:02:45;;;;;;;4.07;0.85;;;4.90;99.90;;;;;;4911372;29;20039;-81
2023/03/05 05:05:14;;;;;;;5.28;0.65;;;5.00;99.90;;;;;;4902252;29;20378;-81
2023/03/05 05:07:40;;;;;;;1.10;0.70;;;5.00;99.90;;;;;;4920886;29;20063;-81
2023/03/05 05:10:08;;;;;;;4.85;0.80;;;4.90;99.90;;;;;;4920473;29;20468;-81
2023/03/05 05:12:34;;;;;;;3.03;0.68;;;4.90;99.90;;;;;;4919015;29;20056;-81
2023/03/05 05:15:00;;;;;;;7.70;0.70;;;4.90;99.90;;;;;;4919004;29;20036;-81
2023/03/05 05:17:29;;;;;;;2.55;0.50;;;4.90;99.90;;;;;;4901809;29;20031;-80
2023/03/05 05:19:55;;;;;;;3.08;0.35;;;4.80;99.90;;;;;;4919107;29;20477;-79
2023/03/05 05:22:22;;;;;;;1.95;0.45;;;4.80;99.90;;;;;;4902044;29;20405;-81
2023/03/05 05:24:47;;;;;;;1.75;0.50;;;4.90;99.90;;;;;;4898587;29;20036;-80
2023/03/05 05:27:14;;;;;;;6.88;1.75;;;4.80;99.90;;;;;;4926683;29;20044;-81
2023/03/05 05:29:40;;;;;;;1.83;0.70;;;4.80;99.90;;;;;;4919285;29;20076;-80
2023/03/05 05:32:05;;;;;;;1.60;0.60;;;4.70;99.90;;;;;;4918501;29;20047;-80
2023/03/05 05:34:31;;;;;;;2.10;0.50;;;4.70;99.90;;;;;;4906419;29;20033;-80
2023/03/05 05:36:57;;;;;;;4.53;0.90;;;4.60;99.90;;;;;;4913016;29;20067;-79
2023/03/05 05:39:22;;;;;;;1.27;0.80;;;4.60;99.90;;;;;;4917966;29;20032;-78
2023/03/05 05:41:50;;;;;;;4.35;0.50;;;4.60;99.90;;;;;;4918594;29;20043;-78
2023/03/05 05:44:16;;;;;;;0.93;0.38;;;4.60;99.90;;;;;;4901473;29;20484;-78
2023/03/05 05:46:41;;;;;;;4.40;0.30;;;4.50;99.90;;;;;;4925743;29;20048;-77
2023/03/05 05:49:07;;;;;;;2.63;0.30;;;4.50;99.90;;;;;;4937341;29;20031;-79
2023/03/05 05:51:33;;;;;;;1.95;0.43;;;4.50;99.90;;;;;;4928113;29;20032;-78
2023/03/05 05:53:58;;;;;;;0.30;0.20;;;4.60;99.90;;;;;;4917554;29;20028;-77
2023/03/05 05:56:24;;;;;;;3.42;0.40;;;4.60;99.90;;;;;;4918314;29;20032;-79
2023/03/05 05:58:50;;;;;;;3.72;0.20;;;4.60;99.90;;;;;;4929389;29;20513;-78
2023/03/05 06:01:28;;;;;;;2.28;0.80;;;4.60;99.90;;;;;;4919879;29;20074;-77
2023/03/05 06:03:54;;;;;;;;;;;4.70;99.90;;;;;;4914275;29;20032;-77
2023/03/05 06:06:22;;;;;;;1.60;0.50;;;4.60;99.90;;;;;;4918063;29;19962;-78
2023/03/05 06:08:49;;;;;;;3.13;0.38;;;4.60;99.90;;;;;;4917679;29;20118;-78
2023/03/05 06:11:15;;;;;;;1.60;0.20;;;4.70;99.90;;;;;;4917966;29;20564;-78
2023/03/05 06:13:41;;;;;;;5.80;0.68;;;4.60;99.90;;;;;;4917339;29;20028;-79
2023/03/05 06:16:12;;;;;;;2.15;0.32;;;4.60;99.90;;;;;;4917814;29;20083;-78
2023/03/05 06:18:37;;;;;;;10.57;1.48;;;4.60;99.90;;;;;;4890471;29;20489;-78
2023/03/05 06:21:06;;;;;;;1.85;0.40;;;4.60;99.90;;;;;;4899172;29;20043;-78
2023/03/05 06:23:32;;;;;;;1.17;0.30;;;4.60;99.90;;;;;;4900437;29;20125;-78
2023/03/05 06:25:59;;;;;;;4.22;0.75;;;4.60;99.90;;;;;;4917779;29;20051;-78
2023/03/05 06:28:25;;;;;;;3.88;0.50;;;4.60;99.90;;;;;;4917475;29;20084;-78
2023/03/05 06:31:03;;;;;;;1.90;0.43;;;4.60;99.90;;;;;;4917670;29;20424;-77
2023/03/05 06:33:29;;;;;;;5.22;0.47;;;4.60;99.90;;;;;;4916348;29;20366;-78
2023/03/05 06:35:55;;;;;;;1.50;0.50;;;4.70;99.90;;;;;;4903133;29;20180;-78
2023/03/05 06:38:21;;;;;;;4.75;0.60;;;4.70;99.90;;;;;;4900520;29;20510;-78
2023/03/05 06:40:47;;;;;;;3.20;1.13;;;4.70;99.90;;;;;;4897246;29;20409;-78
2023/03/05 06:43:12;;;;;;;2.47;0.63;;;4.70;99.90;;;;;;4901440;29;20702;-79
2023/03/05 06:45:38;;;;;;;2.33;0.73;;;4.70;99.90;;;;;;4916710;29;20031;-78
2023/03/05 06:48:04;;;;;;;2.65;1.13;;;4.80;99.90;;;;;;4927257;29;20123;-78
2023/03/05 06:50:29;;;;;;;1.17;0.50;;;4.80;99.90;;;;;;4901245;29;20039;-78
2023/03/05 06:52:55;;;;;;;1.73;0.35;;;4.90;99.90;;;;;;4917310;29;20036;-79
2023/03/05 06:55:21;;;;;;;2.08;0.43;;;4.90;99.90;;;;;;4917425;29;20028;-77
2023/03/05 06:57:46;;;;;;;1.33;0.63;;;4.90;99.90;;;;;;4916119;29;20453;-78
2023/03/05 07:00:13;;;;;;;2.55;0.47;;;5.00;99.90;;;;;;4900309;29;20551;-78
2023/03/05 07:02:39;;;;;;;1.45;0.45;;;4.90;99.90;;;;;;4915793;29;20062;-79
2023/03/05 07:05:06;;;;;;;2.88;0.47;;;5.00;99.90;;;;;;4915400;29;20067;-79
2023/03/05 07:07:32;;;;;;;4.80;0.55;;;5.10;99.90;;;;;;4933578;29;20507;-78
2023/03/05 07:09:58;;;;;;;4.95;0.90;;;5.10;99.90;;;;;;4899779;29;20044;-78
2023/03/05 07:12:23;;;;;;;1.25;0.93;;;5.20;99.90;;;;;;4915353;29;20040;-78
2023/03/05 07:14:50;;;;;;;3.00;0.57;;;5.20;99.90;;;;;;4901214;29;20082;-79
2023/03/05 07:17:16;;;;;;;1.55;0.60;;;5.20;99.90;;;;;;4921300;29;20034;-79
2023/03/05 07:19:42;;;;;;;1.85;0.80;;;5.20;99.90;;;;;;4910493;29;20524;-79
2023/03/05 07:22:08;;;;;;;7.32;1.40;;;5.30;99.90;;;;;;4916171;29;20059;-79
2023/03/05 07:24:34;;;;;;;4.03;0.60;;;5.30;99.90;;;;;;4899863;29;20071;-79
2023/03/05 07:27:00;;;;;;;3.65;0.98;;;5.30;99.90;;;;;;4917708;29;20066;-79
2023/03/05 07:29:27;;;;;;;2.80;0.80;;;5.30;99.90;;;;;;4889482;29;20059;-79
2023/03/05 07:31:53;;;;;;;0.90;0.57;;;5.30;99.90;;;;;;4896927;29;20032;-79
2023/03/05 07:34:20;;;;;;;1.48;0.85;;;5.20;99.90;;;;;;4900237;29;20040;-79
2023/03/05 07:36:49;;;;;;;2.15;0.90;;;5.00;99.90;;;;;;4917973;29;20032;-78
2023/03/05 07:39:17;;;;;;;3.47;0.90;;;4.80;99.90;;;;;;4903872;29;20079;-78
2023/03/05 07:41:45;;;;;;;6.93;1.02;;;4.70;99.90;;;;;;4900673;29;20037;-78
2023/03/05 07:44:10;;;;;;;2.05;0.57;;;4.70;99.90;;;;;;4902982;29;20038;-78
2023/03/05 07:46:36;;;;;;;2.05;0.80;;;4.70;99.90;;;;;;4920513;29;20043;-78
2023/03/05 07:49:02;;;;;;;1.95;0.30;;;4.70;99.90;;;;;;4920754;29;20433;-78
2023/03/05 07:51:28;;;;;;;0.55;0.52;;;4.70;99.90;;;;;;4902302;29;20021;-78
2023/03/05 07:53:57;;;;;;;3.92;0.80;;;4.70;99.90;;;;;;4902806;29;20051;-78
2023/03/05 07:56:30;;;;;;;0.93;0.70;;;4.80;99.90;;;;;;4902141;29;20215;-79
2023/03/05 07:59:06;;;;;;;3.33;0.80;;;4.90;99.90;;;;;;4902999;29;20055;-79
2023/03/05 08:01:33;;;;;;;1.02;0.60;;;5.00;99.90;;;;;;4903420;29;20055;-78
2023/03/05 08:03:59;;;;;;;1.00;0.70;;;5.10;99.90;;;;;;4903232;29;20071;-79
2023/03/05 08:06:25;;;;;;;6.38;1.40;;;5.20;99.90;;;;;;4864959;29;20052;-78
2023/03/05 08:08:50;;;;;;;2.67;0.60;;;5.30;99.90;;;;;;4881270;29;20047;-78
2023/03/05 08:11:16;;;;;;;1.95;0.80;;;5.40;99.90;;;;;;4880914;29;20052;-78
2023/03/05 08:13:43;;;;;;;1.42;0.60;;;5.40;99.90;;;;;;4855500;29;20560;-79
2023/03/05 08:16:13;;;;;;;1.50;0.98;;;5.40;99.90;;;;;;4865581;29;20074;-79
2023/03/05 08:18:39;;;;;;;2.67;1.45;;;5.40;99.90;;;;;;4880612;29;20036;-79
2023/03/05 08:21:05;;;;;;;1.45;1.05;;;5.40;99.90;;;;;;4864514;29;20052;-79
2023/03/05 08:23:33;;;;;;;2.38;1.27;;;5.50;99.90;;;;;;4880295;29;20057;-80
2023/03/05 08:25:59;;;;;;;2.03;1.38;;;5.50;99.90;;;;;;4864936;29;20118;-79
2023/03/05 08:28:25;;;;;;;5.80;1.17;;;5.60;99.90;;;;;;4880030;29;20033;-78
2023/03/05 08:30:50;;;;;;;2.45;1.10;;;5.60;99.90;;;;;;4880282;29;20025;-78
2023/03/05 08:33:16;;;;;;;1.45;1.35;;;5.70;99.90;;;;;;4893475;29;20040;-79
2023/03/05 08:35:43;;;;;;;6.03;1.50;;;5.80;99.90;;;;;;4883102;29;20503;-80
2023/03/05 08:38:09;;;;;;;2.63;2.33;;;5.90;99.90;;;;;;4906337;29;20059;-79
2023/03/05 08:40:35;;;;;;;3.13;1.05;;;6.10;99.90;;;;;;4902694;29;20024;-79
2023/03/05 08:43:01;;;;;;;0.85;0.82;;;6.10;99.90;;;;;;4919613;29;20536;-78
2023/03/05 08:45:27;;;;;;;6.85;0.98;;;6.10;99.90;;;;;;4918224;29;20016;-80
2023/03/05 08:47:55;;;;;;;3.83;1.27;;;6.30;99.90;;;;;;4898231;29;20451;-77
2023/03/05 08:50:22;;;;;;;1.10;0.82;;;6.30;99.90;;;;;;4917800;29;20029;-75
2023/03/05 08:52:48;;;;;;;1.00;0.60;;;6.40;99.90;;;;;;4896402;29;20033;-78
2023/03/05 08:55:13;;;;;;;1.95;0.75;;;6.40;99.90;;;;;;4917444;29;20020;-77
2023/03/05 08:57:39;;;;;;;6.63;0.98;;;6.30;99.90;;;;;;4915650;29;20076;-79
2023/03/05 09:00:06;;;;;;;3.58;0.93;;;6.20;99.90;;;;;;4918659;29;20405;-77
2023/03/05 09:02:32;;;;;;;3.45;1.15;;;6.10;99.90;;;;;;4910985;29;20434;-79
2023/03/05 09:04:57;;;;;;;3.60;0.70;;;6.10;99.90;;;;;;4900448;29;20140;-77
2023/03/05 09:07:23;;;;;;;4.57;0.80;;;6.30;99.90;;;;;;4882975;29;20132;-75
2023/03/05 09:09:48;;;;;;;4.05;0.80;;;6.30;99.90;;;;;;4900250;29;20084;-79
2023/03/05 09:12:14;;;;;;;3.00;0.60;;;6.30;99.90;;;;;;4929826;29;20020;-78
2023/03/05 09:14:41;;;;;;;4.28;1.05;;;6.30;99.90;;;;;;4901793;29;20393;-76
2023/03/05 09:17:07;;;;;;;0.88;0.50;;;6.30;99.90;;;;;;4918739;29;20051;-78
2023/03/05 09:19:33;;;;;;;3.47;0.52;;;6.30;99.90;;;;;;4918248;29;20036;-77
2023/03/05 09:21:59;;;;;;;3.65;0.82;;;6.30;99.90;;;;;;4917757;29;20036;-76
2023/03/05 09:24:25;;;;;;;2.65;1.05;;;6.30;99.90;;;;;;4901014;29;20112;-74
2023/03/05 09:26:50;;;;;;;1.58;0.70;;;6.20;99.90;;;;;;4918372;29;20385;-77
2023/03/05 09:29:16;;;;;;;2.38;1.00;;;6.10;99.90;;;;;;4898831;29;20047;-76
2023/03/05 09:31:42;;;;;;;2.08;0.50;;;6.20;99.90;;;;;;4917926;29;20429;-76
2023/03/05 09:34:10;;;;;;;5.13;1.05;;;6.30;99.90;;;;;;4910106;29;20080;-78
2023/03/05 09:36:36;;;;;;;1.38;0.70;;;6.40;99.90;;;;;;4901365;29;20114;-80
2023/03/05 09:39:03;;;;;;;2.55;0.68;;;6.50;99.90;;;;;;4902340;29;20070;-79
2023/03/05 09:41:54;;;;;;;1.85;0.80;;;6.70;99.90;;;;;;4917614;29;20445;-78
2023/03/05 09:44:41;;;;;;;2.05;0.85;;;6.70;99.90;;;;;;4859618;29;20031;-80
2023/03/05 09:47:33;;;;;;;1.55;0.47;;;6.80;99.90;;;;;;4903478;29;20070;-76
2023/03/05 09:50:30;;;;;;;0.47;0.38;;;6.90;99.90;;;;;;4919200;29;20468;-78
2023/03/05 09:53:11;;;;;;;;;;;6.90;99.90;;;;;;4919163;29;20374;-78
2023/03/05 09:55:58;;;;;;;2.72;0.57;;;7.00;99.90;;;;;;4900931;29;20021;-75
2023/03/05 09:58:39;;;;;;;4.05;0.30;;;7.00;99.90;;;;;;4916269;29;20047;-76
2023/03/05 10:01:19;;;;;;;0.63;0.30;;;7.10;99.90;;;;;;4917496;29;20052;-77
2023/03/05 10:03:56;;;;;;;0.73;0.52;;;7.20;99.90;;;;;;4916258;29;20032;-77
2023/03/05 10:06:52;;;;;;;0.90;0.40;;;7.40;99.90;;;;;;4899610;29;20409;-75
2023/03/05 10:09:50;;;;;;;2.60;0.47;;;7.40;99.90;;;;;;4901248;29;20362;-74
2023/03/05 10:12:19;;;;;;;;;;;7.30;99.90;;;;;;4909613;29;20024;-74
2023/03/05 10:14:45;;;;;;;1.42;0.65;;;7.30;99.90;;;;;;4917708;29;19907;-74
2023/03/05 10:17:30;;;;;;;1.67;0.40;;;7.30;99.90;;;;;;4917574;29;20032;-76
2023/03/05 10:20:29;;;;;;;2.10;0.60;;;7.60;99.90;;;;;;4917559;29;20036;-75
2023/03/05 10:23:07;;;;;;;5.05;1.20;;;7.60;99.90;;;;;;4916962;29;20446;-75
2023/03/05 10:26:04;;;;;;;1.35;0.80;;;7.70;99.90;;;;;;4916358;29;20043;-74
2023/03/05 10:28:34;;;;;;;2.22;0.60;;;7.80;99.90;;;;;;4880569;29;20572;-75
2023/03/05 10:31:06;;;;;;;4.78;0.77;;;8.00;99.90;;;;;;4914652;29;20099;-75
2023/03/05 10:33:50;;;;;;;5.78;0.88;;;8.20;99.90;;;;;;4914833;29;20477;-75
2023/03/05 10:36:35;;;;;;;1.55;0.70;;;8.20;99.90;;;;;;4896662;29;20554;-74
2023/03/05 10:39:13;;;;;;;5.63;0.90;;;7.90;99.90;;;;;;4915256;29;20032;-74
2023/03/05 10:42:08;;;;;;;2.17;0.70;;;7.80;99.90;;;;;;4915726;29;20032;-75
2023/03/05 10:44:46;;;;;;;1.65;0.50;;;7.60;99.90;;;;;;4919475;29;20029;-75
2023/03/05 10:47:40;;;;;;;1.77;0.50;;;7.50;99.90;;;;;;4919395;29;20024;-74
2023/03/05 10:50:18;;;;;;;0.85;0.43;;;7.50;99.90;;;;;;4918079;29;20183;-74
2023/03/05 10:52:50;;;;;;;1.25;0.60;;;7.40;99.90;;;;;;4895409;29;20055;-75
2023/03/05 10:55:21;;;;;;;1.15;0.90;;;7.30;99.90;;;;;;4899424;29;20098;-76
2023/03/05 10:57:47;;;;;;;2.75;0.70;;;7.30;99.90;;;;;;4914426;29;20043;-75
2023/03/05 11:00:21;;;;;;;2.33;1.20;;;7.20;99.90;;;;;;4913190;29;20032;-75
2023/03/05 11:03:09;;;;;;;3.63;1.92;;;7.10;99.90;;;;;;4918276;29;20039;-74
2023/03/05 11:05:42;;;;;;;4.88;1.02;;;7.00;99.90;;;;;;4905425;29;20018;-74
2023/03/05 11:08:29;;;;;;;1.38;1.27;;;7.00;99.90;;;;;;4934302;29;20024;-75
2023/03/05 11:11:15;;;;;;;4.45;2.00;;;7.00;99.90;;;;;;4915778;29;20080;-76
2023/03/05 11:13:59;;;;;;;1.48;1.38;;;6.90;99.90;;;;;;4936608;29;20028;-74
2023/03/05 11:16:28;;;;;;;1.50;1.40;;;6.90;99.90;;;;;;4936373;29;20036;-74
2023/03/05 11:19:12;;;;;;;2.75;1.63;;;7.00;99.90;;;;;;4936168;29;20103;-75
2023/03/05 11:21:38;;;;;;;2.15;1.63;;;7.10;99.90;;;;;;4928508;29;20036;-75
2023/03/05 11:24:15;;;;;;;1.77;1.40;;;7.30;99.90;;;;;;4935455;29;20059;-76
2023/03/05 11:26:47;;;;;;;1.73;1.47;;;7.60;99.90;;;;;;4920886;29;20034;-74
2023/03/05 11:29:23;;;;;;;1.60;1.48;;;7.70;99.90;;;;;;4935918;29;20299;-75
2023/03/05 11:31:50;;;;;;;5.35;1.58;;;7.70;99.90;;;;;;4920644;29;20052;-75
2023/03/05 11:34:16;;;;;;;2.75;1.20;;;7.90;99.90;;;;;;4938587;29;20083;-75
2023/03/05 11:36:57;;;;;;;1.60;1.50;;;7.90;99.90;;;;;;4921770;29;20036;-75
2023/03/05 11:39:24;;;;;;;1.58;1.20;;;7.90;99.90;;;;;;4926120;29;20046;-75
2023/03/05 11:41:56;;;;;;;1.67;1.30;;;7.90;99.90;;;;;;4920033;29;20024;-74
2023/03/05 11:44:24;;;;;;;5.07;1.08;;;8.00;99.90;;;;;;4900627;29;20040;-75
2023/03/05 11:46:54;;;;;;;5.65;1.13;;;8.00;99.90;;;;;;4918627;29;20036;-75
2023/03/05 11:49:24;;;;;;;1.00;1.00;;;8.10;99.90;;;;;;4917438;29;20090;-75
2023/03/05 11:52:05;;;;;;;2.63;1.00;;;8.30;99.90;;;;;;4897837;29;20048;-75
2023/03/05 11:54:45;;;;;;;2.70;0.93;;;8.50;99.90;;;;;;4915657;29;20024;-73
2023/03/05 11:57:14;;;;;;;1.10;1.00;;;8.80;99.90;;;;;;4900238;29;20036;-73
2023/03/05 11:59:40;;;;;;;1.38;1.08;;;8.90;99.90;;;;;;4899845;29;20032;-74
2023/03/05 12:02:20;;;;;;;7.03;1.17;;;8.90;99.90;;;;;;4916567;29;20036;-75
2023/03/05 12:04:47;;;;;;;1.20;1.20;;;8.80;99.90;;;;;;4916544;29;20028;-74
2023/03/05 12:07:23;;;;;;;1.13;1.10;;;8.70;99.90;;;;;;4916774;29;20032;-75
2023/03/05 12:09:51;;;;;;;2.45;0.93;;;8.60;99.90;;;;;;4901560;29;20116;-74
2023/03/05 12:12:41;;;;;;;0.85;0.85;;;8.60;99.90;;;;;;4897710;29;20028;-75
2023/03/05 12:15:45;;;;;;;3.22;1.05;;;8.70;99.90;;;;;;4911734;29;20035;-75
2023/03/05 12:18:26;;;;;;;0.60;0.60;;;8.50;99.90;;;;;;4900238;29;20032;-75
2023/03/05 12:21:25;;;;;;;1.10;0.57;;;8.40;99.90;;;;;;4919201;29;20028;-75
2023/03/05 12:24:02;;;;;;;1.88;0.68;;;8.40;99.90;;;;;;4920107;29;20059;-75
2023/03/05 12:26:57;;;;;;;1.55;0.47;;;8.20;99.90;;;;;;4920224;29;20028;-73
2023/03/05 12:29:46;;;;;;;1.33;0.30;;;8.10;99.90;;;;;;4917383;29;20150;-75
2023/03/05 12:32:21;;;;;;;2.15;0.60;;;8.10;99.90;;;;;;4902589;29;20556;-76
2023/03/05 12:35:05;;;;;;;1.38;0.30;;;8.10;99.90;;;;;;4919705;29;20164;-74
2023/03/05 12:37:31;;;;;;;0.80;0.40;;;8.00;99.90;;;;;;4902633;29;20028;-76
2023/03/05 12:40:19;;;;;;;1.65;0.82;;;7.90;99.90;;;;;;4919673;29;20032;-74
2023/03/05 12:43:01;;;;;;;2.20;0.38;;;7.90;99.90;;;;;;4919734;29;20028;-74
2023/03/05 12:45:36;;;;;;;7.95;0.95;;;7.90;99.90;;;;;;4902591;29;20063;-74
2023/03/05 12:48:02;;;;;;;1.88;0.63;;;8.10;99.90;;;;;;4901869;29;20035;-76
2023/03/05 12:50:28;;;;;;;1.92;1.02;;;8.20;99.90;;;;;;4919166;29;20455;-76
2023/03/05 12:53:03;;;;;;;0.50;0.50;;;8.40;99.90;;;;;;4918442;29;20064;-76
2023/03/05 12:55:44;;;;;;;0.55;0.55;;;8.50;99.90;;;;;;4902287;29;20032;-74
2023/03/05 12:58:24;;;;;;;2.90;0.50;;;8.60;99.90;;;;;;4918851;29;20075;-75
2023/03/05 13:01:11;;;;;;;2.65;0.52;;;8.80;99.90;;;;;;4918493;29;20044;-74
2023/03/05 13:03:46;;;;;;;2.95;0.95;;;8.70;99.90;;;;;;4917752;29;20036;-76
2023/03/05 13:06:31;;;;;;;0.70;0.60;;;8.80;99.90;;;;;;4918244;29;20020;-74
2023/03/05 13:09:06;;;;;;;3.17;0.45;;;8.70;99.90;;;;;;4897984;29;20283;-75
2023/03/05 13:11:37;;;;;;;4.90;0.60;;;8.60;99.90;;;;;;4899975;29;20481;-74